sensor_id;sensor_type;location;lat;lon;timestamp;P1;durP1;ratioP1;P2;durP2;ratioP2
12218;SDS011;6172;42.646;23.344;2023-04-01T00:01:40;9.63;;;4.80;;
12218;SDS011;6172;42.646;23.344;2023-04-01T00:04:07;11.47;;;5.37;;
12218;SDS011;6172;42.646;23.344;2023-04-01T00:06:34;9.53;;;4.83;;
12218;SDS011;6172;42.646;23.344;2023-04-01T00:09:01;12.00;;;5.07;;
12218;SDS011;6172;42.646;23.344;2023-04-01T00:11:28;13.10;;;5.17;;
12218;SDS011;6172;42.646;23.344;2023-04-01T00:13:55;13.43;;;6.60;;
12218;SDS011;6172;42.646;23.344;2023-04-01T00:16:24;12.50;;;7.10;;
12218;SDS011;6172;42.646;23.344;2023-04-01T00:18:51;11.53;;;6.37;;
12218;SDS011;6172;42.646;23.344;2023-04-01T00:21:18;14.30;;;6.50;;
12218;SDS011;6172;42.646;23.344;2023-04-01T00:23:46;13.53;;;6.47;;
12218;SDS011;6172;42.646;23.344;2023-04-01T00:26:14;11.83;;;5.43;;
12218;SDS011;6172;42.646;23.344;2023-04-01T00:28:45;11.13;;;6.17;;
12218;SDS011;6172;42.646;23.344;2023-04-01T00:31:12;13.33;;;6.43;;
12218;SDS011;6172;42.646;23.344;2023-04-01T00:33:42;9.63;;;6.00;;
12218;SDS011;6172;42.646;23.344;2023-04-01T00:36:10;10.97;;;6.30;;
12218;SDS011;6172;42.646;23.344;2023-04-01T00:38:38;10.80;;;6.37;;
12218;SDS011;6172;42.646;23.344;2023-04-01T00:41:05;10.17;;;5.60;;
12218;SDS011;6172;42.646;23.344;2023-04-01T00:43:33;9.60;;;5.87;;
12218;SDS011;6172;42.646;23.344;2023-04-01T00:46:00;9.40;;;5.70;;
12218;SDS011;6172;42.646;23.344;2023-04-01T00:48:28;9.67;;;6.27;;
12218;SDS011;6172;42.646;23.344;2023-04-01T00:50:59;8.10;;;5.53;;
12218;SDS011;6172;42.646;23.344;2023-04-01T00:53:29;9.70;;;5.23;;
12218;SDS011;6172;42.646;23.344;2023-04-01T00:55:59;9.03;;;5.30;;
12218;SDS011;6172;42.646;23.344;2023-04-01T00:58:29;8.80;;;5.23;;
12218;SDS011;6172;42.646;23.344;2023-04-01T01:00:59;8.73;;;4.67;;
12218;SDS011;6172;42.646;23.344;2023-04-01T01:03:27;9.27;;;4.53;;
12218;SDS011;6172;42.646;23.344;2023-04-01T01:11:39;9.87;;;4.90;;
12218;SDS011;6172;42.646;23.344;2023-04-01T01:14:19;10.03;;;4.23;;
12218;SDS011;6172;42.646;23.344;2023-04-01T01:16:53;8.03;;;4.53;;
12218;SDS011;6172;42.646;23.344;2023-04-01T01:19:33;7.27;;;4.10;;
12218;SDS011;6172;42.646;23.344;2023-04-01T01:25:08;8.47;;;5.07;;
12218;SDS011;6172;42.646;23.344;2023-04-01T01:27:57;7.83;;;4.13;;
12218;SDS011;6172;42.646;23.344;2023-04-01T01:30:43;5.50;;;4.03;;
12218;SDS011;6172;42.646;23.344;2023-04-01T01:36:15;7.80;;;3.87;;
12218;SDS011;6172;42.646;23.344;2023-04-01T01:38:46;9.33;;;3.57;;
12218;SDS011;6172;42.646;23.344;2023-04-01T01:41:16;8.03;;;3.57;;
12218;SDS011;6172;42.646;23.344;2023-04-01T01:43:48;9.83;;;2.97;;
12218;SDS011;6172;42.646;23.344;2023-04-01T01:46:19;5.67;;;2.40;;
12218;SDS011;6172;42.646;23.344;2023-04-01T01:48:49;6.93;;;2.37;;
12218;SDS011;6172;42.646;23.344;2023-04-01T01:51:19;6.77;;;2.53;;
12218;SDS011;6172;42.646;23.344;2023-04-01T01:53:48;7.03;;;2.23;;
12218;SDS011;6172;42.646;23.344;2023-04-01T01:56:15;5.70;;;3.00;;
12218;SDS011;6172;42.646;23.344;2023-04-01T01:58:45;6.63;;;3.30;;
12218;SDS011;6172;42.646;23.344;2023-04-01T02:01:16;6.30;;;2.97;;
12218;SDS011;6172;42.646;23.344;2023-04-01T02:03:46;5.63;;;3.10;;
12218;SDS011;6172;42.646;23.344;2023-04-01T02:06:14;8.70;;;2.50;;
12218;SDS011;6172;42.646;23.344;2023-04-01T02:08:45;7.40;;;2.67;;
12218;SDS011;6172;42.646;23.344;2023-04-01T02:11:17;4.77;;;2.30;;
12218;SDS011;6172;42.646;23.344;2023-04-01T02:13:48;8.37;;;2.47;;
12218;SDS011;6172;42.646;23.344;2023-04-01T02:16:19;5.83;;;2.60;;
12218;SDS011;6172;42.646;23.344;2023-04-01T02:18:50;6.07;;;2.40;;
12218;SDS011;6172;42.646;23.344;2023-04-01T02:21:20;4.53;;;2.17;;
12218;SDS011;6172;42.646;23.344;2023-04-01T02:23:50;5.93;;;2.37;;
12218;SDS011;6172;42.646;23.344;2023-04-01T02:26:20;6.70;;;2.83;;
12218;SDS011;6172;42.646;23.344;2023-04-01T02:28:48;9.77;;;2.43;;
12218;SDS011;6172;42.646;23.344;2023-04-01T02:31:15;6.77;;;2.70;;
12218;SDS011;6172;42.646;23.344;2023-04-01T02:33:43;3.70;;;2.47;;
12218;SDS011;6172;42.646;23.344;2023-04-01T02:36:12;7.50;;;2.53;;
12218;SDS011;6172;42.646;23.344;2023-04-01T02:38:41;7.30;;;2.50;;
12218;SDS011;6172;42.646;23.344;2023-04-01T02:41:10;5.60;;;2.40;;
12218;SDS011;6172;42.646;23.344;2023-04-01T02:43:38;6.37;;;2.20;;
12218;SDS011;6172;42.646;23.344;2023-04-01T02:46:05;7.80;;;2.47;;
12218;SDS011;6172;42.646;23.344;2023-04-01T02:48:31;6.07;;;2.60;;
12218;SDS011;6172;42.646;23.344;2023-04-01T02:50:58;7.20;;;2.40;;
12218;SDS011;6172;42.646;23.344;2023-04-01T02:53:25;6.63;;;2.67;;
12218;SDS011;6172;42.646;23.344;2023-04-01T02:55:52;11.47;;;2.53;;
12218;SDS011;6172;42.646;23.344;2023-04-01T02:58:20;7.67;;;2.93;;
12218;SDS011;6172;42.646;23.344;2023-04-01T03:00:47;5.83;;;2.57;;
12218;SDS011;6172;42.646;23.344;2023-04-01T03:03:14;4.03;;;2.83;;
12218;SDS011;6172;42.646;23.344;2023-04-01T03:05:42;4.37;;;2.43;;
12218;SDS011;6172;42.646;23.344;2023-04-01T03:08:08;4.30;;;2.33;;
12218;SDS011;6172;42.646;23.344;2023-04-01T03:10:36;7.13;;;2.77;;
12218;SDS011;6172;42.646;23.344;2023-04-01T03:13:03;7.57;;;2.93;;
12218;SDS011;6172;42.646;23.344;2023-04-01T03:15:32;5.40;;;2.57;;
12218;SDS011;6172;42.646;23.344;2023-04-01T03:17:59;6.10;;;3.10;;
12218;SDS011;6172;42.646;23.344;2023-04-01T03:20:29;6.97;;;2.93;;
12218;SDS011;6172;42.646;23.344;2023-04-01T03:22:56;5.17;;;2.53;;
12218;SDS011;6172;42.646;23.344;2023-04-01T03:25:23;7.77;;;2.80;;
12218;SDS011;6172;42.646;23.344;2023-04-01T03:27:50;7.03;;;2.77;;
12218;SDS011;6172;42.646;23.344;2023-04-01T03:30:17;5.30;;;3.03;;
12218;SDS011;6172;42.646;23.344;2023-04-01T03:32:45;7.57;;;2.97;;
12218;SDS011;6172;42.646;23.344;2023-04-01T03:35:13;10.97;;;3.10;;
12218;SDS011;6172;42.646;23.344;2023-04-01T03:37:40;6.73;;;2.40;;
12218;SDS011;6172;42.646;23.344;2023-04-01T03:40:07;11.07;;;3.07;;
12218;SDS011;6172;42.646;23.344;2023-04-01T03:42:35;6.83;;;2.10;;
12218;SDS011;6172;42.646;23.344;2023-04-01T03:45:02;5.43;;;2.07;;
12218;SDS011;6172;42.646;23.344;2023-04-01T03:47:30;3.17;;;1.97;;
12218;SDS011;6172;42.646;23.344;2023-04-01T03:49:58;4.03;;;1.83;;
12218;SDS011;6172;42.646;23.344;2023-04-01T03:52:25;6.43;;;2.10;;
12218;SDS011;6172;42.646;23.344;2023-04-01T03:54:52;6.10;;;2.10;;
12218;SDS011;6172;42.646;23.344;2023-04-01T03:57:19;11.37;;;2.73;;
12218;SDS011;6172;42.646;23.344;2023-04-01T03:59:46;3.83;;;1.77;;
12218;SDS011;6172;42.646;23.344;2023-04-01T04:02:13;5.97;;;2.33;;
12218;SDS011;6172;42.646;23.344;2023-04-01T04:04:40;6.50;;;2.50;;
12218;SDS011;6172;42.646;23.344;2023-04-01T04:07:09;6.57;;;3.00;;
12218;SDS011;6172;42.646;23.344;2023-04-01T04:09:36;5.17;;;2.63;;
12218;SDS011;6172;42.646;23.344;2023-04-01T04:12:03;4.83;;;2.37;;
12218;SDS011;6172;42.646;23.344;2023-04-01T04:14:30;8.53;;;2.80;;
12218;SDS011;6172;42.646;23.344;2023-04-01T04:16:57;11.43;;;3.07;;
12218;SDS011;6172;42.646;23.344;2023-04-01T04:19:25;5.87;;;2.70;;
12218;SDS011;6172;42.646;23.344;2023-04-01T04:21:51;9.03;;;3.57;;
12218;SDS011;6172;42.646;23.344;2023-04-01T04:24:19;9.27;;;3.90;;
12218;SDS011;6172;42.646;23.344;2023-04-01T04:26:46;6.33;;;3.23;;
12218;SDS011;6172;42.646;23.344;2023-04-01T04:29:13;7.97;;;4.20;;
12218;SDS011;6172;42.646;23.344;2023-04-01T04:31:40;8.70;;;3.20;;
12218;SDS011;6172;42.646;23.344;2023-04-01T04:34:08;5.87;;;3.23;;
12218;SDS011;6172;42.646;23.344;2023-04-01T04:36:35;7.50;;;3.33;;
12218;SDS011;6172;42.646;23.344;2023-04-01T04:39:02;8.63;;;3.33;;
12218;SDS011;6172;42.646;23.344;2023-04-01T04:41:30;8.43;;;3.53;;
12218;SDS011;6172;42.646;23.344;2023-04-01T04:43:57;7.33;;;3.30;;
12218;SDS011;6172;42.646;23.344;2023-04-01T04:46:24;10.00;;;3.70;;
12218;SDS011;6172;42.646;23.344;2023-04-01T04:48:56;6.17;;;2.87;;
12218;SDS011;6172;42.646;23.344;2023-04-01T04:51:23;8.77;;;3.17;;
12218;SDS011;6172;42.646;23.344;2023-04-01T04:53:50;4.23;;;2.83;;
12218;SDS011;6172;42.646;23.344;2023-04-01T04:56:17;8.00;;;3.10;;
12218;SDS011;6172;42.646;23.344;2023-04-01T04:58:46;8.13;;;3.33;;
12218;SDS011;6172;42.646;23.344;2023-04-01T05:01:14;7.50;;;3.20;;
12218;SDS011;6172;42.646;23.344;2023-04-01T05:03:43;8.10;;;3.40;;
12218;SDS011;6172;42.646;23.344;2023-04-01T05:06:11;6.00;;;3.50;;
12218;SDS011;6172;42.646;23.344;2023-04-01T05:08:39;8.17;;;3.73;;
12218;SDS011;6172;42.646;23.344;2023-04-01T05:11:09;8.90;;;4.23;;
12218;SDS011;6172;42.646;23.344;2023-04-01T05:13:38;8.13;;;4.40;;
12218;SDS011;6172;42.646;23.344;2023-04-01T05:16:08;7.33;;;4.37;;
12218;SDS011;6172;42.646;23.344;2023-04-01T05:18:36;9.30;;;4.43;;
12218;SDS011;6172;42.646;23.344;2023-04-01T05:21:03;9.90;;;4.60;;
12218;SDS011;6172;42.646;23.344;2023-04-01T05:23:30;9.67;;;4.30;;
12218;SDS011;6172;42.646;23.344;2023-04-01T05:25:57;9.20;;;4.67;;
12218;SDS011;6172;42.646;23.344;2023-04-01T05:28:29;8.53;;;3.90;;
12218;SDS011;6172;42.646;23.344;2023-04-01T05:30:58;7.80;;;3.97;;
12218;SDS011;6172;42.646;23.344;2023-04-01T05:33:28;11.17;;;5.67;;
12218;SDS011;6172;42.646;23.344;2023-04-01T05:35:55;10.27;;;4.33;;
12218;SDS011;6172;42.646;23.344;2023-04-01T05:38:22;7.47;;;4.30;;
12218;SDS011;6172;42.646;23.344;2023-04-01T05:40:49;9.70;;;4.20;;
12218;SDS011;6172;42.646;23.344;2023-04-01T05:43:16;9.67;;;3.87;;
12218;SDS011;6172;42.646;23.344;2023-04-01T05:45:43;9.60;;;4.00;;
12218;SDS011;6172;42.646;23.344;2023-04-01T05:48:10;8.60;;;4.20;;
12218;SDS011;6172;42.646;23.344;2023-04-01T05:50:41;6.80;;;3.60;;
12218;SDS011;6172;42.646;23.344;2023-04-01T05:53:08;8.13;;;3.80;;
12218;SDS011;6172;42.646;23.344;2023-04-01T05:55:35;6.00;;;3.30;;
12218;SDS011;6172;42.646;23.344;2023-04-01T05:58:02;7.40;;;3.40;;
12218;SDS011;6172;42.646;23.344;2023-04-01T06:00:30;6.80;;;3.28;;
12218;SDS011;6172;42.646;23.344;2023-04-01T06:02:58;5.88;;;3.10;;
12218;SDS011;6172;42.646;23.344;2023-04-01T06:05:26;6.72;;;3.72;;
12218;SDS011;6172;42.646;23.344;2023-04-01T06:07:57;10.00;;;3.35;;
12218;SDS011;6172;42.646;23.344;2023-04-01T06:10:33;9.55;;;3.20;;
12218;SDS011;6172;42.646;23.344;2023-04-01T06:13:09;9.45;;;3.10;;
12218;SDS011;6172;42.646;23.344;2023-04-01T06:15:51;7.20;;;3.30;;
12218;SDS011;6172;42.646;23.344;2023-04-01T06:18:35;9.30;;;3.20;;
12218;SDS011;6172;42.646;23.344;2023-04-01T06:21:31;9.25;;;3.25;;
12218;SDS011;6172;42.646;23.344;2023-04-01T06:27:21;7.90;;;3.53;;
12218;SDS011;6172;42.646;23.344;2023-04-01T06:30:02;8.73;;;3.40;;
12218;SDS011;6172;42.646;23.344;2023-04-01T06:32:40;6.97;;;3.40;;
12218;SDS011;6172;42.646;23.344;2023-04-01T06:35:31;7.03;;;3.00;;
12218;SDS011;6172;42.646;23.344;2023-04-01T06:38:13;10.77;;;2.90;;
12218;SDS011;6172;42.646;23.344;2023-04-01T06:43:54;6.50;;;3.50;;
12218;SDS011;6172;42.646;23.344;2023-04-01T06:46:34;6.90;;;2.70;;
12218;SDS011;6172;42.646;23.344;2023-04-01T06:49:19;10.67;;;3.60;;
12218;SDS011;6172;42.646;23.344;2023-04-01T06:51:56;8.03;;;3.23;;
12218;SDS011;6172;42.646;23.344;2023-04-01T06:54:31;7.67;;;3.93;;
12218;SDS011;6172;42.646;23.344;2023-04-01T06:57:02;7.33;;;5.13;;
12218;SDS011;6172;42.646;23.344;2023-04-01T06:59:41;9.60;;;5.37;;
12218;SDS011;6172;42.646;23.344;2023-04-01T07:02:12;13.33;;;5.47;;
12218;SDS011;6172;42.646;23.344;2023-04-01T07:04:48;8.00;;;5.27;;
12218;SDS011;6172;42.646;23.344;2023-04-01T07:07:19;9.67;;;4.70;;
12218;SDS011;6172;42.646;23.344;2023-04-01T07:09:50;9.57;;;4.93;;
12218;SDS011;6172;42.646;23.344;2023-04-01T07:12:21;8.53;;;4.63;;
12218;SDS011;6172;42.646;23.344;2023-04-01T07:15:01;8.60;;;4.13;;
12218;SDS011;6172;42.646;23.344;2023-04-01T07:17:38;10.37;;;4.57;;
12218;SDS011;6172;42.646;23.344;2023-04-01T07:20:11;10.57;;;4.37;;
12218;SDS011;6172;42.646;23.344;2023-04-01T07:22:44;11.33;;;4.37;;
12218;SDS011;6172;42.646;23.344;2023-04-01T07:25:13;11.53;;;4.63;;
12218;SDS011;6172;42.646;23.344;2023-04-01T07:27:43;7.27;;;4.13;;
12218;SDS011;6172;42.646;23.344;2023-04-01T07:30:14;11.70;;;4.83;;
12218;SDS011;6172;42.646;23.344;2023-04-01T07:32:44;6.57;;;3.90;;
12218;SDS011;6172;42.646;23.344;2023-04-01T07:35:20;7.73;;;3.80;;
12218;SDS011;6172;42.646;23.344;2023-04-01T07:40:48;3.87;;;2.93;;
12218;SDS011;6172;42.646;23.344;2023-04-01T07:43:36;7.87;;;3.87;;
12218;SDS011;6172;42.646;23.344;2023-04-01T07:46:16;11.13;;;3.17;;
12218;SDS011;6172;42.646;23.344;2023-04-01T07:48:56;11.87;;;3.70;;
12218;SDS011;6172;42.646;23.344;2023-04-01T07:51:29;7.77;;;3.50;;
12218;SDS011;6172;42.646;23.344;2023-04-01T07:54:03;6.40;;;4.18;;
12218;SDS011;6172;42.646;23.344;2023-04-01T07:56:37;8.07;;;3.97;;
12218;SDS011;6172;42.646;23.344;2023-04-01T07:59:11;10.03;;;4.00;;
12218;SDS011;6172;42.646;23.344;2023-04-01T08:01:49;8.27;;;3.07;;
12218;SDS011;6172;42.646;23.344;2023-04-01T08:04:28;6.63;;;3.57;;
12218;SDS011;6172;42.646;23.344;2023-04-01T08:07:09;6.47;;;3.10;;
12218;SDS011;6172;42.646;23.344;2023-04-01T08:09:42;10.07;;;3.40;;
12218;SDS011;6172;42.646;23.344;2023-04-01T08:12:20;4.57;;;2.87;;
12218;SDS011;6172;42.646;23.344;2023-04-01T08:14:56;6.13;;;3.43;;
12218;SDS011;6172;42.646;23.344;2023-04-01T08:17:37;6.60;;;3.07;;
12218;SDS011;6172;42.646;23.344;2023-04-01T08:20:16;6.97;;;2.97;;
12218;SDS011;6172;42.646;23.344;2023-04-01T08:22:53;9.03;;;3.70;;
12218;SDS011;6172;42.646;23.344;2023-04-01T08:25:26;7.97;;;3.57;;
12218;SDS011;6172;42.646;23.344;2023-04-01T08:27:57;9.73;;;3.53;;
12218;SDS011;6172;42.646;23.344;2023-04-01T08:30:33;8.57;;;3.30;;
12218;SDS011;6172;42.646;23.344;2023-04-01T08:33:10;8.90;;;3.80;;
12218;SDS011;6172;42.646;23.344;2023-04-01T08:35:45;9.90;;;3.60;;
12218;SDS011;6172;42.646;23.344;2023-04-01T08:38:17;7.57;;;3.70;;
12218;SDS011;6172;42.646;23.344;2023-04-01T08:40:55;9.17;;;3.43;;
12218;SDS011;6172;42.646;23.344;2023-04-01T08:46:38;9.67;;;4.07;;
12218;SDS011;6172;42.646;23.344;2023-04-01T08:49:28;9.13;;;2.90;;
12218;SDS011;6172;42.646;23.344;2023-04-01T08:55:02;4.90;;;2.67;;
12218;SDS011;6172;42.646;23.344;2023-04-01T08:57:50;7.53;;;3.03;;
12218;SDS011;6172;42.646;23.344;2023-04-01T09:00:31;8.27;;;2.97;;
12218;SDS011;6172;42.646;23.344;2023-04-01T09:03:10;8.30;;;2.95;;
12218;SDS011;6172;42.646;23.344;2023-04-01T09:06:02;4.28;;;2.63;;
12218;SDS011;6172;42.646;23.344;2023-04-01T09:08:50;6.43;;;2.60;;
12218;SDS011;6172;42.646;23.344;2023-04-01T09:11:32;8.27;;;3.20;;
12218;SDS011;6172;42.646;23.344;2023-04-01T09:14:34;9.10;;;3.40;;
12218;SDS011;6172;42.646;23.344;2023-04-01T09:17:27;12.52;;;3.55;;
12218;SDS011;6172;42.646;23.344;2023-04-01T09:20:08;8.23;;;3.30;;
12218;SDS011;6172;42.646;23.344;2023-04-01T09:22:56;10.00;;;2.58;;
12218;SDS011;6172;42.646;23.344;2023-04-01T09:25:51;10.43;;;2.20;;
12218;SDS011;6172;42.646;23.344;2023-04-01T09:28:28;3.60;;;2.10;;
12218;SDS011;6172;42.646;23.344;2023-04-01T09:31:08;6.20;;;2.20;;
12218;SDS011;6172;42.646;23.344;2023-04-01T09:37:02;8.57;;;2.10;;
12218;SDS011;6172;42.646;23.344;2023-04-01T09:40:16;8.77;;;2.17;;
12218;SDS011;6172;42.646;23.344;2023-04-01T09:42:45;8.30;;;2.38;;
12218;SDS011;6172;42.646;23.344;2023-04-01T09:45:31;6.68;;;2.13;;
12218;SDS011;6172;42.646;23.344;2023-04-01T09:48:10;6.40;;;2.33;;
12218;SDS011;6172;42.646;23.344;2023-04-01T09:50:50;3.42;;;1.63;;
12218;SDS011;6172;42.646;23.344;2023-04-01T09:53:29;4.65;;;1.83;;
12218;SDS011;6172;42.646;23.344;2023-04-01T09:56:23;3.78;;;1.30;;
12218;SDS011;6172;42.646;23.344;2023-04-01T09:59:23;10.77;;;1.90;;
12218;SDS011;6172;42.646;23.344;2023-04-01T10:11:42;4.30;;;2.13;;
12218;SDS011;6172;42.646;23.344;2023-04-01T10:21:06;4.63;;;1.77;;
12218;SDS011;6172;42.646;23.344;2023-04-01T10:23:52;4.60;;;1.92;;
12218;SDS011;6172;42.646;23.344;2023-04-01T10:26:48;4.10;;;1.83;;
12218;SDS011;6172;42.646;23.344;2023-04-01T10:29:52;9.75;;;1.90;;
12218;SDS011;6172;42.646;23.344;2023-04-01T10:48:19;5.38;;;2.25;;
12218;SDS011;6172;42.646;23.344;2023-04-01T10:51:14;4.50;;;2.17;;
12218;SDS011;6172;42.646;23.344;2023-04-01T10:56:58;7.65;;;2.63;;
12218;SDS011;6172;42.646;23.344;2023-04-01T10:59:35;6.43;;;2.42;;
12218;SDS011;6172;42.646;23.344;2023-04-01T11:11:43;6.97;;;1.92;;
12218;SDS011;6172;42.646;23.344;2023-04-01T11:14:34;4.90;;;2.65;;
12218;SDS011;6172;42.646;23.344;2023-04-01T11:17:36;6.47;;;2.13;;
12218;SDS011;6172;42.646;23.344;2023-04-01T11:20:41;4.60;;;2.20;;
12218;SDS011;6172;42.646;23.344;2023-04-01T11:23:33;4.50;;;1.15;;
12218;SDS011;6172;42.646;23.344;2023-04-01T11:26:20;4.05;;;1.15;;
12218;SDS011;6172;42.646;23.344;2023-04-01T11:29:02;7.28;;;1.60;;
12218;SDS011;6172;42.646;23.344;2023-04-01T11:31:46;4.03;;;1.05;;
12218;SDS011;6172;42.646;23.344;2023-04-01T11:34:37;3.97;;;0.80;;
12218;SDS011;6172;42.646;23.344;2023-04-01T11:37:21;2.63;;;0.97;;
12218;SDS011;6172;42.646;23.344;2023-04-01T11:39:59;2.30;;;0.70;;
12218;SDS011;6172;42.646;23.344;2023-04-01T11:42:43;2.77;;;1.07;;
12218;SDS011;6172;42.646;23.344;2023-04-01T11:45:19;4.80;;;1.00;;
12218;SDS011;6172;42.646;23.344;2023-04-01T11:47:57;4.20;;;0.93;;
12218;SDS011;6172;42.646;23.344;2023-04-01T11:50:37;5.13;;;0.80;;
12218;SDS011;6172;42.646;23.344;2023-04-01T11:53:22;3.93;;;1.30;;
12218;SDS011;6172;42.646;23.344;2023-04-01T11:56:02;10.27;;;1.27;;
12218;SDS011;6172;42.646;23.344;2023-04-01T11:58:56;5.93;;;1.17;;
12218;SDS011;6172;42.646;23.344;2023-04-01T12:01:34;5.20;;;1.37;;
12218;SDS011;6172;42.646;23.344;2023-04-01T12:07:19;5.03;;;1.40;;
12218;SDS011;6172;42.646;23.344;2023-04-01T12:09:56;4.13;;;1.60;;
12218;SDS011;6172;42.646;23.344;2023-04-01T12:12:31;6.83;;;1.63;;
12218;SDS011;6172;42.646;23.344;2023-04-01T12:15:13;6.93;;;2.43;;
12218;SDS011;6172;42.646;23.344;2023-04-01T12:17:50;5.17;;;2.03;;
12218;SDS011;6172;42.646;23.344;2023-04-01T12:20:36;5.83;;;1.93;;
12218;SDS011;6172;42.646;23.344;2023-04-01T12:23:24;3.70;;;1.73;;
12218;SDS011;6172;42.646;23.344;2023-04-01T12:26:18;6.17;;;2.67;;
12218;SDS011;6172;42.646;23.344;2023-04-01T12:29:02;9.07;;;2.73;;
12218;SDS011;6172;42.646;23.344;2023-04-01T12:31:50;4.00;;;2.10;;
12218;SDS011;6172;42.646;23.344;2023-04-01T12:34:33;2.83;;;1.83;;
12218;SDS011;6172;42.646;23.344;2023-04-01T12:37:12;2.47;;;1.70;;
12218;SDS011;6172;42.646;23.344;2023-04-01T12:39:51;4.30;;;1.63;;
12218;SDS011;6172;42.646;23.344;2023-04-01T12:42:43;3.23;;;1.43;;
12218;SDS011;6172;42.646;23.344;2023-04-01T12:45:29;4.13;;;2.10;;
12218;SDS011;6172;42.646;23.344;2023-04-01T12:48:03;2.63;;;1.77;;
12218;SDS011;6172;42.646;23.344;2023-04-01T12:51:07;3.67;;;2.00;;
12218;SDS011;6172;42.646;23.344;2023-04-01T12:54:08;4.70;;;2.03;;
12218;SDS011;6172;42.646;23.344;2023-04-01T12:56:54;4.80;;;2.90;;
12218;SDS011;6172;42.646;23.344;2023-04-01T12:59:35;4.53;;;2.50;;
12218;SDS011;6172;42.646;23.344;2023-04-01T13:02:11;5.03;;;2.97;;
12218;SDS011;6172;42.646;23.344;2023-04-01T13:04:54;3.97;;;2.83;;
12218;SDS011;6172;42.646;23.344;2023-04-01T13:07:36;8.27;;;2.50;;
12218;SDS011;6172;42.646;23.344;2023-04-01T13:10:19;3.20;;;2.60;;
12218;SDS011;6172;42.646;23.344;2023-04-01T13:16:02;4.03;;;1.67;;
12218;SDS011;6172;42.646;23.344;2023-04-01T13:18:35;3.07;;;1.60;;
12218;SDS011;6172;42.646;23.344;2023-04-01T13:21:16;4.23;;;2.00;;
12218;SDS011;6172;42.646;23.344;2023-04-01T13:23:54;5.43;;;2.30;;
12218;SDS011;6172;42.646;23.344;2023-04-01T13:26:28;4.90;;;2.53;;
12218;SDS011;6172;42.646;23.344;2023-04-01T13:29:03;4.00;;;2.00;;
12218;SDS011;6172;42.646;23.344;2023-04-01T13:31:42;3.53;;;2.00;;
12218;SDS011;6172;42.646;23.344;2023-04-01T13:34:23;2.43;;;2.00;;
12218;SDS011;6172;42.646;23.344;2023-04-01T13:37:04;4.10;;;1.97;;
12218;SDS011;6172;42.646;23.344;2023-04-01T13:39:47;3.70;;;1.40;;
12218;SDS011;6172;42.646;23.344;2023-04-01T13:42:31;4.40;;;1.63;;
12218;SDS011;6172;42.646;23.344;2023-04-01T13:45:09;2.47;;;1.60;;
12218;SDS011;6172;42.646;23.344;2023-04-01T13:57:00;2.00;;;1.37;;
12218;SDS011;6172;42.646;23.344;2023-04-01T13:59:49;4.37;;;2.00;;
12218;SDS011;6172;42.646;23.344;2023-04-01T14:05:35;2.33;;;1.00;;
12218;SDS011;6172;42.646;23.344;2023-04-01T14:08:17;3.93;;;1.20;;
12218;SDS011;6172;42.646;23.344;2023-04-01T14:10:56;6.67;;;1.63;;
12218;SDS011;6172;42.646;23.344;2023-04-01T14:13:37;3.43;;;1.10;;
12218;SDS011;6172;42.646;23.344;2023-04-01T14:19:21;4.27;;;1.40;;
12218;SDS011;6172;42.646;23.344;2023-04-01T14:22:03;3.40;;;1.37;;
12218;SDS011;6172;42.646;23.344;2023-04-01T14:24:46;4.90;;;1.77;;
12218;SDS011;6172;42.646;23.344;2023-04-01T14:27:35;9.17;;;1.40;;
12218;SDS011;6172;42.646;23.344;2023-04-01T14:30:23;7.00;;;2.10;;
12218;SDS011;6172;42.646;23.344;2023-04-01T14:33:02;6.17;;;2.70;;
12218;SDS011;6172;42.646;23.344;2023-04-01T14:35:37;6.73;;;2.67;;
12218;SDS011;6172;42.646;23.344;2023-04-01T14:38:28;6.47;;;3.17;;
12218;SDS011;6172;42.646;23.344;2023-04-01T14:41:09;7.73;;;2.90;;
12218;SDS011;6172;42.646;23.344;2023-04-01T14:43:53;6.57;;;3.13;;
12218;SDS011;6172;42.646;23.344;2023-04-01T14:46:53;4.57;;;2.40;;
12218;SDS011;6172;42.646;23.344;2023-04-01T14:49:41;4.47;;;2.40;;
12218;SDS011;6172;42.646;23.344;2023-04-01T14:52:12;4.47;;;1.93;;
12218;SDS011;6172;42.646;23.344;2023-04-01T14:54:43;6.47;;;2.40;;
12218;SDS011;6172;42.646;23.344;2023-04-01T14:57:13;6.20;;;2.97;;
12218;SDS011;6172;42.646;23.344;2023-04-01T14:59:49;7.43;;;1.80;;
12218;SDS011;6172;42.646;23.344;2023-04-01T15:05:23;5.20;;;2.30;;
12218;SDS011;6172;42.646;23.344;2023-04-01T15:08:05;3.47;;;1.90;;
12218;SDS011;6172;42.646;23.344;2023-04-01T15:13:39;4.57;;;1.50;;
12218;SDS011;6172;42.646;23.344;2023-04-01T15:16:18;5.57;;;1.87;;
12218;SDS011;6172;42.646;23.344;2023-04-01T15:18:53;5.37;;;1.57;;
12218;SDS011;6172;42.646;23.344;2023-04-01T15:21:32;6.70;;;2.00;;
12218;SDS011;6172;42.646;23.344;2023-04-01T15:24:10;7.40;;;2.77;;
12218;SDS011;6172;42.646;23.344;2023-04-01T15:27:05;7.40;;;2.10;;
12218;SDS011;6172;42.646;23.344;2023-04-01T15:32:36;4.33;;;1.97;;
12218;SDS011;6172;42.646;23.344;2023-04-01T15:35:19;8.00;;;2.80;;
12218;SDS011;6172;42.646;23.344;2023-04-01T15:37:58;6.50;;;2.20;;
12218;SDS011;6172;42.646;23.344;2023-04-01T15:40:35;3.73;;;1.83;;
12218;SDS011;6172;42.646;23.344;2023-04-01T15:43:15;7.03;;;3.00;;
12218;SDS011;6172;42.646;23.344;2023-04-01T15:45:55;4.70;;;2.63;;
12218;SDS011;6172;42.646;23.344;2023-04-01T15:48:44;4.57;;;2.30;;
12218;SDS011;6172;42.646;23.344;2023-04-01T15:51:35;5.30;;;2.40;;
12218;SDS011;6172;42.646;23.344;2023-04-01T15:54:23;4.20;;;1.53;;
12218;SDS011;6172;42.646;23.344;2023-04-01T15:56:57;2.67;;;0.77;;
12218;SDS011;6172;42.646;23.344;2023-04-01T15:59:44;1.77;;;0.40;;
12218;SDS011;6172;42.646;23.344;2023-04-01T16:02:21;11.57;;;1.57;;
12218;SDS011;6172;42.646;23.344;2023-04-01T16:04:54;1.10;;;0.63;;
12218;SDS011;6172;42.646;23.344;2023-04-01T16:10:24;2.20;;;0.80;;
12218;SDS011;6172;42.646;23.344;2023-04-01T16:13:13;3.83;;;0.83;;
12218;SDS011;6172;42.646;23.344;2023-04-01T16:15:53;1.60;;;0.90;;
12218;SDS011;6172;42.646;23.344;2023-04-01T16:18:39;1.10;;;0.87;;
12218;SDS011;6172;42.646;23.344;2023-04-01T16:21:23;0.60;;;0.57;;
12218;SDS011;6172;42.646;23.344;2023-04-01T16:24:03;3.10;;;0.87;;
12218;SDS011;6172;42.646;23.344;2023-04-01T16:26:43;3.43;;;1.30;;
12218;SDS011;6172;42.646;23.344;2023-04-01T16:29:20;2.00;;;1.20;;
12218;SDS011;6172;42.646;23.344;2023-04-01T16:32:12;1.70;;;1.40;;
12218;SDS011;6172;42.646;23.344;2023-04-01T16:34:53;2.20;;;0.93;;
12218;SDS011;6172;42.646;23.344;2023-04-01T16:37:29;2.50;;;0.90;;
12218;SDS011;6172;42.646;23.344;2023-04-01T16:40:09;1.50;;;0.60;;
12218;SDS011;6172;42.646;23.344;2023-04-01T16:42:46;0.60;;;0.50;;
12218;SDS011;6172;42.646;23.344;2023-04-01T16:45:21;1.00;;;0.80;;
12218;SDS011;6172;42.646;23.344;2023-04-01T16:48:00;0.97;;;0.70;;
12218;SDS011;6172;42.646;23.344;2023-04-01T16:50:41;1.57;;;0.60;;
12218;SDS011;6172;42.646;23.344;2023-04-01T16:53:19;0.83;;;0.77;;
12218;SDS011;6172;42.646;23.344;2023-04-01T16:56:04;0.53;;;0.50;;
12218;SDS011;6172;42.646;23.344;2023-04-01T16:58:41;0.80;;;0.60;;
12218;SDS011;6172;42.646;23.344;2023-04-01T17:01:20;1.07;;;0.70;;
12218;SDS011;6172;42.646;23.344;2023-04-01T17:03:52;0.40;;;0.40;;
12218;SDS011;6172;42.646;23.344;2023-04-01T17:06:26;0.57;;;0.37;;
12218;SDS011;6172;42.646;23.344;2023-04-01T17:09:16;1.07;;;0.40;;
12218;SDS011;6172;42.646;23.344;2023-04-01T17:11:56;0.53;;;0.20;;
12218;SDS011;6172;42.646;23.344;2023-04-01T17:14:36;0.30;;;0.30;;
12218;SDS011;6172;42.646;23.344;2023-04-01T17:17:14;0.40;;;0.33;;
12218;SDS011;6172;42.646;23.344;2023-04-01T17:19:54;0.40;;;0.30;;
12218;SDS011;6172;42.646;23.344;2023-04-01T17:22:31;0.50;;;0.40;;
12218;SDS011;6172;42.646;23.344;2023-04-01T17:25:15;1.60;;;0.40;;
12218;SDS011;6172;42.646;23.344;2023-04-01T17:27:54;0.50;;;0.30;;